Time;durP1;ratioP1;P1;durP2;ratioP2;P2;SDS_P1;SDS_P2;PMS_P1;PMS_P2;Temp;Humidity;BMP_temperature;BMP_pressure;BME280_temperature;BME280_humidity;BME280_pressure;Samples;Min_cycle;Max_cycle;Signal;HPM_P1;HPM_P2
2021/12/22 00:00:17;;;;;;;10.75;4.18;;;;;;;-3.20;71.49;97857.81;5043056;28;20162;-63
2021/12/22 00:02:48;;;;;;;7.57;2.28;;;;;;;-3.15;71.06;97870.56;5043133;28;20729;-68
2021/12/22 00:05:17;;;;;;;6.70;3.28;;;;;;;-3.20;71.15;97865.13;5025309;28;20053;-63
2021/12/22 00:07:44;;;;;;;10.18;3.28;;;;;;;-3.48;71.55;97843.84;5043584;28;20622;-67
2021/12/22 00:10:12;;;;;;;12.65;3.83;;;;;;;-3.45;72.13;97870.41;5025251;28;20102;-63
2021/12/22 00:12:39;;;;;;;10.15;3.78;;;;;;;-3.52;72.14;97875.19;5043112;28;20423;-63
2021/12/22 00:15:06;;;;;;;11.15;3.53;;;;;;;-3.48;73.29;97887.16;5041859;28;20088;-64
2021/12/22 00:17:33;;;;;;;10.27;3.38;;;;;;;-3.55;73.32;97875.72;5043105;28;20055;-67
2021/12/22 00:20:00;;;;;;;10.93;4.28;;;;;;;-3.50;73.27;97873.06;5043069;28;20139;-68
2021/12/22 00:22:26;;;;;;;14.40;4.30;;;;;;;-3.55;73.52;97863.03;5043337;28;20417;-68
2021/12/22 00:24:53;;;;;;;20.65;6.97;;;;;;;-3.49;73.44;97870.09;5025253;28;20053;-68
2021/12/22 00:27:20;;;;;;;18.40;6.05;;;;;;;-3.92;73.42;97799.97;5043187;28;20160;-66
2021/12/22 00:29:49;;;;;;;20.55;5.72;;;;;;;-3.59;73.85;97863.81;5025060;28;20056;-67
2021/12/22 00:32:17;;;;;;;12.77;5.32;;;;;;;-3.62;73.77;97864.31;5041830;28;20061;-68
2021/12/22 00:34:48;;;;;;;15.15;5.68;;;;;;;-3.68;74.03;97876.16;5024992;28;20056;-67
2021/12/22 00:37:18;;;;;;;15.65;5.30;;;;;;;-3.73;74.48;97868.03;5043158;28;20057;-63
2021/12/22 00:39:45;;;;;;;9.25;4.32;;;;;;;-4.95;73.34;97681.50;2299467;28;10002018;-65
2021/12/22 00:42:13;;;;;;;11.23;4.20;;;;;;;-3.90;74.12;97848.41;5020152;28;20425;-66
2021/12/22 00:44:42;;;;;;;11.55;4.97;;;;;;;-3.78;73.84;97868.00;5024780;28;20061;-67
2021/12/22 00:47:09;;;;;;;12.93;4.20;;;;;;;-3.80;73.89;97868.25;5042860;28;20065;-68
2021/12/22 00:49:36;;;;;;;10.18;4.35;;;;;;;-4.80;73.78;97716.78;5042747;28;20137;-63
2021/12/22 00:52:03;;;;;;;21.17;6.80;;;;;;;-3.87;74.04;97888.50;5043183;28;20136;-67
2021/12/22 00:54:31;;;;;;;22.52;6.72;;;;;;;-3.88;73.83;97876.03;5045527;28;20507;-66
2021/12/22 00:57:04;;;;;;;19.60;7.03;;;;;;;-4.16;74.04;97835.75;5066439;28;20083;-68
2021/12/22 00:59:31;;;;;;;;;;;;;;;-3.92;74.54;97877.63;5067101;28;20135;-68
2021/12/22 01:01:59;;;;;;;12.13;3.38;;;;;;;-3.98;75.23;97889.47;5066244;28;19924;-64
2021/12/22 01:04:26;;;;;;;14.32;3.78;;;;;;;-3.92;74.44;97880.31;5066889;28;20136;-63
2021/12/22 01:06:53;;;;;;;19.98;6.50;;;;;;;-3.86;73.31;97887.41;5066413;28;20053;-63
2021/12/22 01:09:20;;;;;;;30.73;8.05;;;;;;;-3.87;73.10;97872.25;5066643;28;20049;-68
2021/12/22 01:11:48;;;;;;;21.10;6.13;;;;;;;-4.01;74.14;97881.84;5066679;28;20106;-63
2021/12/22 01:14:15;;;;;;;22.60;6.65;;;;;;;-4.13;74.46;97873.09;5048185;28;20049;-63
2021/12/22 01:16:48;;;;;;;18.67;5.03;;;;;;;-4.82;74.67;97762.16;5066067;28;20044;-68
2021/12/22 01:19:22;;;;;;;13.02;3.72;;;;;;;-4.94;74.97;97758.78;5066497;28;20049;-68
2021/12/22 01:21:57;;;;;;;10.60;3.03;;;;;;;-4.23;74.26;97873.00;5065650;28;20064;-63
2021/12/22 01:27:04;;;;;;;;;;;;;;;-4.37;74.37;97874.47;5066354;28;20056;-68
2021/12/22 01:29:32;;;;;;;5.03;2.10;;;;;;;-4.97;74.90;97782.78;5065858;28;19957;-68
2021/12/22 01:32:00;;;;;;;4.95;1.95;;;;;;;-5.23;75.77;97751.97;5065542;28;20607;-63
2021/12/22 01:34:28;;;;;;;10.30;2.83;;;;;;;-4.33;76.05;97872.91;5048446;28;20803;-68
2021/12/22 01:36:55;;;;;;;7.22;2.97;;;;;;;-4.27;75.90;97872.72;5066083;28;20048;-64
2021/12/22 01:39:21;;;;;;;8.38;3.15;;;;;;;-4.29;75.59;97868.63;5066272;28;20136;-67
2021/12/22 01:41:48;;;;;;;6.95;2.72;;;;;;;-4.31;75.32;97870.75;5065736;28;20167;-67
2021/12/22 01:44:48;;;;;;;8.00;3.45;;;;;;;-4.25;74.32;97875.16;5047544;28;20044;-67
2021/12/22 01:50:00;;;;;;;10.68;3.70;;;;;;;-4.18;73.61;97873.03;5065829;28;20083;-62
2021/12/22 01:52:27;;;;;;;9.82;3.85;;;;;;;-4.22;73.51;97880.06;5065562;28;20048;-67
2021/12/22 01:55:02;;;;;;;16.77;4.45;;;;;;;-4.25;74.06;97881.34;5060648;28;20049;-66
2021/12/22 01:57:30;;;;;;;15.35;3.60;;;;;;;-4.20;73.98;97877.88;5045600;28;20163;-66
2021/12/22 01:59:59;;;;;;;4.70;1.65;;;;;;;-5.28;74.56;97768.13;5028148;28;20141;-62
2021/12/22 02:02:26;;;;;;;11.07;2.70;;;;;;;-5.16;74.13;97743.69;5044206;28;20157;-66
2021/12/22 02:04:53;;;;;;;10.88;3.15;;;;;;;-4.41;74.61;97870.66;5027305;28;20952;-62
2021/12/22 02:07:20;;;;;;;13.95;3.72;;;;;;;-4.90;74.74;97805.03;5043756;28;20055;-67
2021/12/22 02:12:37;;;;;;;15.13;2.65;;;;;;;-4.41;74.52;97876.06;5045463;28;20573;-62
2021/12/22 02:15:05;;;;;;;10.33;2.37;;;;;;;-4.91;74.54;97817.72;5045373;28;20127;-65
2021/12/22 02:17:34;;;;;;;8.82;2.15;;;;;;;-4.47;74.15;97872.47;5045162;28;20325;-67
2021/12/22 02:20:03;;;;;;;7.10;2.88;;;;;;;-4.52;74.09;97877.03;5045501;28;20060;-63
2021/12/22 02:22:29;;;;;;;9.90;4.13;;;;;;;-4.84;73.49;97831.03;5045155;28;20131;-68
2021/12/22 02:25:02;;;;;;;24.60;10.60;;;;;;;-4.66;73.89;97872.03;5027453;28;20517;-64
2021/12/22 02:30:01;;;;;;;35.40;15.38;;;;;;;-4.69;74.42;97867.13;5044693;28;20053;-64
2021/12/22 02:33:06;;;;;;;18.90;9.40;;;;;;;-5.51;75.04;97752.19;5044754;28;20568;-63
2021/12/22 02:35:39;;;;;;;18.17;5.60;;;;;;;-4.96;77.14;97855.47;5044262;28;20073;-67
2021/12/22 02:38:14;;;;;;;13.50;4.72;;;;;;;-4.85;76.12;97870.72;5027326;28;20061;-63
2021/12/22 02:40:51;;;;;;;12.05;4.15;;;;;;;-4.77;74.90;97878.38;5027076;28;20065;-67
2021/12/22 02:43:23;;;;;;;10.63;3.80;;;;;;;-4.88;75.00;97860.41;5026771;28;20055;-67
2021/12/22 02:45:52;;;;;;;8.35;3.08;;;;;;;-5.12;74.79;97823.94;5044536;28;20053;-63
2021/12/22 02:48:19;;;;;;;10.88;3.90;;;;;;;-4.78;75.67;97876.75;5044712;28;20132;-67
2021/12/22 02:50:46;;;;;;;11.65;4.25;;;;;;;-4.76;75.54;97874.59;5044597;28;20057;-63
2021/12/22 02:53:15;;;;;;;16.58;5.57;;;;;;;-4.89;76.03;97856.09;5044797;28;20048;-67
2021/12/22 02:55:51;;;;;;;17.38;5.15;;;;;;;-4.98;75.34;97849.47;5055595;28;20465;-63
2021/12/22 03:04:18;;;;;;;12.07;5.03;;;;;;;-4.89;75.51;97868.78;4982175;28;20058;-68
2021/12/22 03:09:16;;;;;;;19.80;5.45;;;;;;;-4.86;75.91;97890.72;5064479;28;20078;-64
2021/12/22 03:11:42;;;;;;;13.10;3.25;;;;;;;-5.17;76.16;97817.66;5063761;28;20438;-67
2021/12/22 03:14:11;;;;;;;8.40;2.83;;;;;;;-6.88;76.71;97555.75;5046419;28;20056;-68
2021/12/22 03:16:38;;;;;;;21.27;6.60;;;;;;;-5.16;77.82;97830.91;5046058;28;20610;-68
2021/12/22 03:19:05;;;;;;;14.25;3.78;;;;;;;-4.82;78.08;97886.41;5063953;28;20064;-68
2021/12/22 03:21:32;;;;;;;54.03;13.18;;;;;;;-5.80;77.48;97753.41;5063839;28;20579;-68
2021/12/22 03:23:58;;;;;;;36.35;12.45;;;;;;;-4.86;77.66;97887.19;5062001;28;20599;-63
2021/12/22 03:26:26;;;;;;;31.20;10.48;;;;;;;-4.91;77.59;97866.31;5063802;28;20048;-68
2021/12/22 03:28:52;;;;;;;26.08;9.02;;;;;;;-4.83;77.20;97890.19;5063778;28;20078;-63
2021/12/22 03:31:19;;;;;;;23.58;8.00;;;;;;;-4.78;76.57;97898.38;5046545;28;20479;-68
2021/12/22 03:33:46;;;;;;;22.10;6.97;;;;;;;-4.83;75.69;97905.59;5045339;28;20052;-68
2021/12/22 03:36:13;;;;;;;19.60;7.22;;;;;;;-4.89;75.55;97896.63;5045842;28;20071;-68
2021/12/22 03:38:40;;;;;;;17.25;5.85;;;;;;;-4.89;75.20;97895.78;5045742;28;20285;-63
2021/12/22 03:41:08;;;;;;;11.93;3.33;;;;;;;-5.15;74.37;97850.63;5045242;28;20519;-68
2021/12/22 03:43:36;;;;;;;7.20;3.42;;;;;;;-6.16;74.59;97705.50;5063606;28;20049;-63
2021/12/22 03:46:04;;;;;;;16.27;7.07;;;;;;;-5.07;74.21;97894.22;5063909;28;20432;-63
2021/12/22 03:48:31;;;;;;;19.23;7.35;;;;;;;-5.57;74.82;97827.91;5063796;28;20056;-64
2021/12/22 03:50:58;;;;;;;20.48;8.60;;;;;;;-4.93;75.71;97933.28;5063294;28;20044;-63
2021/12/22 03:53:25;;;;;;;26.20;8.15;;;;;;;-5.59;75.64;97806.59;5063329;28;20049;-67
2021/12/22 03:55:52;;;;;;;15.80;6.95;;;;;;;-4.97;75.50;97910.56;5050906;28;20169;-68
2021/12/22 03:58:19;;;;;;;15.32;5.82;;;;;;;-5.21;75.50;97902.91;5025705;28;20514;-63
2021/12/22 04:00:50;;;;;;;10.38;5.63;;;;;;;-5.09;75.99;97917.94;5042847;28;20135;-68
2021/12/22 04:03:27;;;;;;;16.85;6.40;;;;;;;-5.09;76.01;97927.94;5043705;28;20053;-67
2021/12/22 04:05:54;;;;;;;15.50;5.07;;;;;;;-5.14;75.24;97914.38;5025880;28;20462;-68
2021/12/22 04:08:21;;;;;;;8.68;4.10;;;;;;;-5.40;75.58;97906.97;5043432;28;20139;-64
2021/12/22 04:10:49;;;;;;;28.63;7.80;;;;;;;-5.29;76.22;97923.06;5043081;28;20048;-64
2021/12/22 04:13:17;;;;;;;19.35;8.25;;;;;;;-5.21;75.54;97924.50;5025271;28;20148;-64
2021/12/22 04:15:45;;;;;;;18.70;5.45;;;;;;;-5.23;75.23;97930.16;5043293;28;20544;-63
2021/12/22 04:18:13;;;;;;;15.95;5.70;;;;;;;-5.25;75.40;97924.19;5043334;28;20228;-64
2021/12/22 04:20:40;;;;;;;9.48;4.60;;;;;;;-5.35;75.85;97934.84;5043262;28;20071;-68
2021/12/22 04:23:07;;;;;;;15.15;6.10;;;;;;;-5.37;75.54;97939.69;5043111;28;20165;-68
2021/12/22 04:25:35;;;;;;;18.50;7.03;;;;;;;-5.60;76.42;97910.19;5043410;28;20084;-68
2021/12/22 04:28:08;;;;;;;20.75;7.68;;;;;;;-5.65;76.31;97890.41;5043153;28;20063;-62
2021/12/22 04:30:41;;;;;;;17.67;8.38;;;;;;;-5.45;76.53;97945.50;5045989;28;20056;-63
2021/12/22 04:33:08;;;;;;;17.85;6.38;;;;;;;-5.69;77.24;97927.84;5047035;28;20060;-66
2021/12/22 04:35:35;;;;;;;25.48;8.55;;;;;;;-6.22;77.03;97873.59;5047116;28;20044;-63
2021/12/22 04:38:02;;;;;;;27.40;6.93;;;;;;;-5.60;77.65;97937.19;5046863;28;20059;-63
2021/12/22 04:40:29;;;;;;;13.27;5.45;;;;;;;-5.99;77.25;97878.03;5047413;28;20059;-67
2021/12/22 04:42:56;;;;;;;14.30;5.60;;;;;;;-7.76;77.21;97596.00;5046790;28;20059;-63
2021/12/22 04:45:23;;;;;;;8.93;3.33;;;;;;;-6.59;77.09;97797.78;5028449;28;20053;-63
2021/12/22 04:47:51;;;;;;;11.25;3.85;;;;;;;-5.61;76.59;97957.09;5046683;28;20057;-68
2021/12/22 04:50:20;;;;;;;10.38;3.90;;;;;;;-8.47;76.48;97515.97;5046122;28;20049;-62
2021/12/22 04:55:24;;;;;;;15.55;5.13;;;;;;;-5.86;77.07;97943.22;5054358;28;20513;-63
2021/12/22 04:57:53;;;;;;;76.45;25.98;;;;;;;-5.68;77.10;97966.44;5066726;28;20061;-67
2021/12/22 05:00:21;;;;;;;30.38;11.88;;;;;;;-5.82;76.63;97939.00;5066497;28;20049;-66
2021/12/22 05:02:48;;;;;;;11.70;4.45;;;;;;;-5.89;76.81;97949.13;5066111;28;20056;-64
2021/12/22 05:05:16;;;;;;;13.65;6.05;;;;;;;-5.68;77.00;97978.06;5066100;28;20078;-64
2021/12/22 05:07:44;;;;;;;6.88;2.47;;;;;;;-5.73;76.64;97969.88;5066363;28;20056;-68
2021/12/22 05:10:10;;;;;;;6.13;2.38;;;;;;;-5.88;77.15;97956.13;5065834;28;20448;-62
2021/12/22 05:12:37;;;;;;;7.20;2.83;;;;;;;-6.31;76.26;97864.28;5066197;28;20095;-62
2021/12/22 05:15:04;;;;;;;9.18;3.40;;;;;;;-6.22;76.08;97888.94;5047824;28;20098;-68
2021/12/22 05:20:12;;;;;;;36.85;9.77;;;;;;;-6.30;76.17;97890.16;5066063;28;20055;-64
2021/12/22 05:22:39;;;;;;;33.40;9.75;;;;;;;-5.72;76.42;97976.09;5047874;28;20048;-62
2021/12/22 05:25:09;;;;;;;25.05;8.63;;;;;;;-7.06;76.46;97776.72;5048395;28;20049;-63
2021/12/22 05:27:36;;;;;;;15.43;6.80;;;;;;;-6.47;76.00;97881.25;5066091;28;20056;-68
2021/12/22 05:30:05;;;;;;;28.17;9.50;;;;;;;-5.78;75.83;97977.88;5066000;28;20442;-63
2021/12/22 05:32:34;;;;;;;19.90;7.47;;;;;;;-5.89;76.53;97981.47;5065770;28;20052;-67
2021/12/22 05:35:05;;;;;;;15.63;5.97;;;;;;;-5.85;76.67;97974.56;5065854;28;20153;-64
2021/12/22 05:37:32;;;;;;;16.92;6.82;;;;;;;-6.10;77.14;97957.91;5047826;28;20048;-68
2021/12/22 05:39:59;;;;;;;16.52;6.35;;;;;;;-6.04;76.92;97973.13;5065807;28;20107;-67
2021/12/22 05:42:27;;;;;;;10.85;4.22;;;;;;;-6.04;77.53;97983.94;5065441;28;20052;-68
2021/12/22 05:44:54;;;;;;;10.60;4.95;;;;;;;-6.00;77.04;97985.06;5060480;28;20055;-71
2021/12/22 05:47:22;;;;;;;18.25;7.65;;;;;;;-6.01;77.47;97988.84;5065842;28;20056;-62
2021/12/22 05:49:49;;;;;;;29.52;10.02;;;;;;;-6.10;77.53;97963.28;5065951;28;20072;-62
2021/12/22 05:52:16;;;;;;;19.85;8.50;;;;;;;-6.45;76.24;97906.88;5065545;28;20052;-69
2021/12/22 05:54:45;;;;;;;28.50;13.65;;;;;;;-5.92;75.80;98052.09;5065435;28;20053;-69
2021/12/22 05:57:12;;;;;;;32.85;13.95;;;;;;;-6.65;76.92;97917.28;5065208;28;20053;-69
2021/12/22 05:59:39;;;;;;;18.55;9.48;;;;;;;-6.49;77.64;97956.09;5047011;28;20052;-63
2021/12/22 06:02:05;;;;;;;14.77;7.30;;;;;;;-6.05;78.09;97987.66;5064788;28;20114;-68
2021/12/22 06:04:32;;;;;;;18.27;8.48;;;;;;;-5.99;77.15;98002.88;5047376;28;20052;-70
2021/12/22 06:06:59;;;;;;;18.63;8.18;;;;;;;-5.88;77.06;97999.28;5047569;28;20068;-62
2021/12/22 06:09:26;;;;;;;23.67;7.53;;;;;;;-5.84;76.67;97997.75;5065409;28;20048;-70
2021/12/22 06:11:52;;;;;;;29.95;10.88;;;;;;;-5.83;77.08;98012.88;5065226;28;20523;-62
2021/12/22 06:14:19;;;;;;;27.45;12.20;;;;;;;-6.49;77.56;97883.34;5065272;28;20052;-69
2021/12/22 06:16:46;;;;;;;31.35;13.30;;;;;;;-5.58;77.20;98004.38;5064672;28;20558;-69
2021/12/22 06:19:14;;;;;;;39.22;14.82;;;;;;;-5.68;77.26;97999.63;5065290;28;20048;-70
2021/12/22 06:21:41;;;;;;;52.22;19.38;;;;;;;-5.49;77.28;98013.69;5046856;28;20070;-68
2021/12/22 06:24:08;;;;;;;45.20;17.80;;;;;;;-5.67;76.26;97947.31;5065428;28;20060;-69
2021/12/22 06:26:35;;;;;;;38.67;16.50;;;;;;;-5.16;75.52;98011.81;5065046;28;20407;-69
2021/12/22 06:29:02;;;;;;;49.95;20.70;;;;;;;-5.12;76.17;98018.34;5064703;28;20182;-62
2021/12/22 06:31:28;;;;;;;52.03;20.55;;;;;;;-5.49;75.24;97921.94;5064696;28;20060;-68
2021/12/22 06:33:55;;;;;;;56.05;21.48;;;;;;;-5.49;75.18;97922.78;5064313;28;20577;-62
2021/12/22 06:36:22;;;;;;;49.63;21.17;;;;;;;-4.87;75.00;98009.81;5063337;28;20082;-69
2021/12/22 06:38:49;;;;;;;43.38;16.63;;;;;;;-4.85;73.85;98005.78;5044270;28;20071;-62
2021/12/22 06:41:16;;;;;;;27.15;12.00;;;;;;;-4.69;73.45;98010.34;5044651;28;20045;-62
2021/12/22 06:43:42;;;;;;;27.10;8.55;;;;;;;-7.36;72.54;97547.47;5063006;28;20323;-61
2021/12/22 06:46:09;;;;;;;23.73;9.27;;;;;;;-4.70;72.33;97953.84;5062544;28;20052;-68
2021/12/22 06:48:36;;;;;;;22.95;10.25;;;;;;;-6.77;71.63;97606.00;5063180;28;20451;-63
2021/12/22 06:51:04;;;;;;;26.73;9.70;;;;;;;-4.13;72.07;98019.97;5046427;28;20061;-71
2021/12/22 06:53:34;;;;;;;24.92;8.40;;;;;;;-4.15;69.43;97978.84;5048877;28;20049;-64
2021/12/22 06:56:02;;;;;;;14.65;7.25;;;;;;;-4.87;69.80;97943.09;5046732;28;20060;-63
2021/12/22 06:58:29;;;;;;;27.88;10.43;;;;;;;-5.32;69.34;97799.41;5041579;28;20052;-63
2021/12/22 07:00:56;;;;;;;19.42;8.40;;;;;;;-3.85;69.13;98037.84;5041129;28;20045;-68
2021/12/22 07:03:23;;;;;;;30.17;10.40;;;;;;;-4.26;68.71;97938.41;5053280;28;20086;-63
2021/12/22 07:05:50;;;;;;;22.60;10.18;;;;;;;-4.93;68.87;97792.81;5052033;28;21643;-72
2021/12/22 07:08:17;;;;;;;19.20;8.05;;;;;;;-3.26;68.92;98050.38;5048041;28;20045;-66
2021/12/22 07:10:44;;;;;;;24.75;8.30;;;;;;;-3.74;68.35;97942.16;5043379;28;20044;-68
2021/12/22 07:13:11;;;;;;;37.33;10.68;;;;;;;-3.01;67.94;97995.56;5025289;28;20045;-68
2021/12/22 07:15:38;;;;;;;32.92;13.48;;;;;;;-2.86;67.33;97996.47;5044184;28;20048;-65
2021/12/22 07:18:08;;;;;;;51.85;24.27;;;;;;;-2.57;66.65;98019.41;5061620;28;20491;-62
2021/12/22 07:20:35;;;;;;;45.88;18.48;;;;;;;-2.42;66.51;98016.78;5063348;28;20445;-65
2021/12/22 07:23:02;;;;;;;37.08;17.05;;;;;;;-2.47;65.48;97981.53;5044270;28;20061;-63
2021/12/22 07:25:30;;;;;;;29.80;12.82;;;;;;;-2.38;64.08;97979.91;5063217;28;20568;-67
2021/12/22 07:27:57;;;;;;;21.52;9.10;;;;;;;-2.00;62.13;98014.81;5062883;28;20059;-70
2021/12/22 07:30:23;;;;;;;19.25;8.43;;;;;;;-2.49;62.74;97966.56;5051186;28;20052;-64
2021/12/22 07:32:51;;;;;;;22.63;11.05;;;;;;;-1.71;61.97;98021.38;5050670;28;20057;-63
2021/12/22 07:35:49;;;;;;;38.88;14.55;;;;;;;-1.55;61.77;98012.19;5024504;28;20059;-63
2021/12/22 07:38:27;;;;;;;35.53;15.98;;;;;;;-1.28;62.02;98008.44;5058034;28;20435;-68
2021/12/22 07:40:56;;;;;;;62.78;24.90;;;;;;;-1.48;61.43;97954.88;5042102;28;20135;-63
2021/12/22 07:43:24;;;;;;;50.92;24.25;;;;;;;-1.30;61.12;98021.47;5048877;28;20300;-64
2021/12/22 07:45:52;;;;;;;36.30;14.50;;;;;;;-0.99;60.69;98014.94;5052177;28;20051;-71
2021/12/22 07:48:19;;;;;;;22.35;11.60;;;;;;;-1.75;60.88;97892.69;5025727;28;20382;-63
2021/12/22 07:50:45;;;;;;;23.50;10.68;;;;;;;-2.45;61.30;97783.25;5057390;28;20533;-65
2021/12/22 07:53:12;;;;;;;27.60;11.50;;;;;;;-1.46;61.12;97927.44;5037625;28;20053;-65
2021/12/22 07:55:39;;;;;;;24.13;10.60;;;;;;;-0.81;60.61;98012.50;5049808;28;20499;-65
2021/12/22 07:58:07;;;;;;;19.73;9.52;;;;;;;-0.87;59.40;98001.88;5034914;28;20110;-62
2021/12/22 08:00:35;;;;;;;26.20;10.80;;;;;;;-0.53;59.44;98013.78;5045320;28;20045;-65
2021/12/22 08:03:03;;;;;;;24.13;10.23;;;;;;;-0.92;58.57;97929.31;5049395;28;20575;-61
2021/12/22 08:05:51;;;;;;;22.13;11.57;;;;;;;-0.41;57.89;98028.72;5044410;28;20053;-65
2021/12/22 08:08:19;;;;;;;18.63;8.45;;;;;;;-1.44;57.23;97832.91;5050707;28;20056;-70
2021/12/22 08:10:49;;;;;;;28.50;13.00;;;;;;;-0.21;57.46;98014.25;5045589;28;20444;-67
2021/12/22 08:13:16;;;;;;;27.73;11.55;;;;;;;0.09;57.02;98014.13;5053630;28;20412;-66
2021/12/22 08:15:44;;;;;;;27.10;11.63;;;;;;;0.32;55.42;98016.16;5049040;28;20395;-67
2021/12/22 08:18:11;;;;;;;23.05;9.70;;;;;;;-0.15;54.67;97898.78;5042820;28;20055;-69
2021/12/22 08:20:39;;;;;;;13.60;7.15;;;;;;;-0.03;53.75;97878.28;5043577;28;20045;-67
2021/12/22 08:23:06;;;;;;;13.27;6.18;;;;;;;0.98;52.78;98009.16;5044268;28;20048;-67
2021/12/22 08:25:32;;;;;;;15.57;6.13;;;;;;;0.13;52.19;97832.69;5044288;28;20068;-69
2021/12/22 08:27:59;;;;;;;15.95;6.18;;;;;;;1.64;51.85;98022.19;5044789;28;20055;-64
2021/12/22 08:30:27;;;;;;;12.80;5.47;;;;;;;1.82;50.58;98021.47;5054317;28;20446;-69
2021/12/22 08:32:56;;;;;;;17.92;7.05;;;;;;;1.58;50.45;98016.78;5036293;28;20126;-66
2021/12/22 08:35:25;;;;;;;22.42;8.13;;;;;;;0.77;50.00;97868.66;5038444;28;20664;-68
2021/12/22 08:40:37;;;;;;;13.27;6.05;;;;;;;1.75;49.91;98018.25;5021051;28;20052;-64
2021/12/22 08:43:04;;;;;;;12.98;4.78;;;;;;;1.55;50.46;97976.41;4996907;28;20061;-64
2021/12/22 08:45:31;;;;;;;5.40;3.08;;;;;;;1.12;48.79;97905.66;5039299;28;20052;-63
2021/12/22 08:47:58;;;;;;;3.72;1.63;;;;;;;-0.28;50.32;97885.78;5037922;28;20089;-64
2021/12/22 08:50:26;;;;;;;5.70;2.40;;;;;;;0.64;49.72;97985.72;5043240;28;20053;-66
2021/12/22 08:52:55;;;;;;;6.38;2.05;;;;;;;0.71;50.46;97976.09;5040725;28;20079;-70
2021/12/22 08:55:22;;;;;;;4.80;1.42;;;;;;;0.53;48.89;97968.63;5057449;28;20052;-63
2021/12/22 08:57:49;;;;;;;3.88;1.25;;;;;;;-0.20;49.68;98043.09;5061569;28;20061;-62
2021/12/22 09:00:16;;;;;;;3.25;1.23;;;;;;;-0.90;52.79;97991.56;5046868;28;20037;-64
2021/12/22 09:02:45;;;;;;;6.53;2.00;;;;;;;-1.64;52.55;97864.44;5046256;28;20080;-67
2021/12/22 09:05:12;;;;;;;5.95;2.55;;;;;;;-0.21;52.20;98016.97;5045855;28;20114;-63
2021/12/22 09:07:39;;;;;;;5.47;2.17;;;;;;;-1.13;53.39;97954.06;5051541;28;20427;-64
2021/12/22 09:10:06;;;;;;;5.32;2.22;;;;;;;-0.61;52.47;97957.22;5035547;28;20052;-68
2021/12/22 09:12:33;;;;;;;5.00;2.28;;;;;;;-0.54;52.26;97938.69;5039971;28;20053;-63
2021/12/22 09:15:00;;;;;;;4.53;2.00;;;;;;;-0.15;52.59;97996.78;5056081;28;20040;-64
2021/12/22 09:17:27;;;;;;;4.22;1.52;;;;;;;0.09;52.54;97989.59;5052259;28;20041;-69
2021/12/22 09:19:54;;;;;;;5.22;1.67;;;;;;;-0.59;51.61;97786.38;5061088;28;20048;-65
2021/12/22 09:22:21;;;;;;;4.43;1.65;;;;;;;0.12;50.83;97866.47;5050590;28;20048;-64
2021/12/22 09:24:49;;;;;;;4.45;2.25;;;;;;;0.38;50.13;97911.50;5051623;28;20049;-62
2021/12/22 09:27:16;;;;;;;6.32;2.42;;;;;;;0.68;49.47;97889.44;5064891;28;20527;-67
2021/12/22 09:29:43;;;;;;;5.20;1.92;;;;;;;0.28;49.29;97805.34;5055846;28;20508;-68
2021/12/22 09:32:14;;;;;;;4.13;2.17;;;;;;;0.40;50.14;97973.88;5048780;28;20045;-70
2021/12/22 09:34:43;;;;;;;3.95;1.70;;;;;;;-0.02;51.52;97982.59;5043289;28;20057;-61
2021/12/22 09:37:10;;;;;;;5.10;1.73;;;;;;;0.91;50.06;97975.13;5031164;28;20047;-63
2021/12/22 09:39:37;;;;;;;3.25;1.73;;;;;;;1.05;48.27;97908.72;5062655;28;20396;-62
2021/12/22 09:42:05;;;;;;;4.75;2.30;;;;;;;0.69;49.23;97915.63;5060667;28;20390;-69
2021/12/22 09:44:37;;;;;;;7.15;1.92;;;;;;;0.89;49.09;97893.63;5050346;28;20059;-67
2021/12/22 09:47:05;;;;;;;4.28;1.42;;;;;;;0.33;47.87;97761.72;5045412;28;20056;-68
2021/12/22 09:54:55;;;;;;;3.67;1.50;;;;;;;0.92;48.25;97972.13;5048038;28;20055;-63
2021/12/22 09:57:23;;;;;;;8.65;2.92;;;;;;;1.21;47.34;97926.56;5057894;28;20072;-70
2021/12/22 09:59:52;;;;;;;3.58;1.70;;;;;;;2.06;46.64;97951.22;5052612;28;20048;-61
2021/12/22 10:02:22;;;;;;;3.38;1.90;;;;;;;2.41;46.29;97912.44;5060354;28;20063;-66
2021/12/22 10:04:49;;;;;;;12.38;4.00;;;;;;;1.72;45.82;97866.75;5054719;28;20132;-67
2021/12/22 10:07:20;;;;;;;13.65;4.78;;;;;;;2.59;45.70;97942.50;5044836;28;20077;-67
2021/12/22 10:09:48;;;;;;;9.75;2.92;;;;;;;3.01;43.83;97944.28;5047360;28;20121;-62
2021/12/22 10:12:19;;;;;;;4.80;1.67;;;;;;;3.08;42.74;97950.19;5049218;28;20427;-64
2021/12/22 10:14:59;;;;;;;7.93;2.20;;;;;;;3.40;43.15;97952.88;5059836;28;20102;-65
2021/12/22 10:17:38;;;;;;;2.60;1.35;;;;;;;1.64;43.16;97743.69;5053904;28;20891;-74
2021/12/22 10:20:25;;;;;;;5.32;2.72;;;;;;;1.69;45.93;97948.44;5038882;28;20083;-72
2021/12/22 10:22:52;;;;;;;6.45;2.35;;;;;;;1.53;46.62;97945.06;5065086;28;20092;-70
2021/12/22 10:25:22;;;;;;;9.52;3.65;;;;;;;1.70;45.44;97802.59;5059569;28;20128;-68
2021/12/22 10:28:02;;;;;;;6.63;2.63;;;;;;;2.94;44.82;97916.53;5043680;28;20059;-67
2021/12/22 10:30:33;;;;;;;7.45;3.97;;;;;;;3.07;44.48;97866.47;5044066;28;20515;-69
2021/12/22 10:33:21;;;;;;;3.13;1.45;;;;;;;1.97;44.76;97887.41;5064427;28;20139;-65
2021/12/22 10:36:00;;;;;;;2.45;1.27;;;;;;;2.60;44.06;97902.31;5046389;28;20503;-66
2021/12/22 10:38:29;;;;;;;5.32;2.33;;;;;;;2.91;44.46;97911.63;5045279;28;20044;-70
2021/12/22 10:41:06;;;;;;;4.03;1.63;;;;;;;3.20;42.48;97901.25;5063795;28;20547;-67
2021/12/22 10:43:38;;;;;;;13.45;9.38;;;;;;;3.52;42.86;97884.75;5065132;28;20436;-73
2021/12/22 10:46:06;;;;;;;6.80;2.55;;;;;;;3.84;41.70;97887.34;5064131;28;20053;-70
2021/12/22 10:51:31;;;;;;;4.22;1.73;;;;;;;4.12;40.77;97893.63;5056345;28;20044;-70
2021/12/22 10:54:00;;;;;;;4.57;1.92;;;;;;;3.11;41.38;97890.19;5044177;28;20059;-68
2021/12/22 10:56:31;;;;;;;4.43;1.48;;;;;;;2.61;43.00;97890.25;5063510;28;20135;-72
2021/12/22 10:59:04;;;;;;;8.05;2.33;;;;;;;3.11;42.25;97900.34;5064177;28;20135;-72
2021/12/22 11:01:34;;;;;;;12.60;3.63;;;;;;;3.09;42.70;97891.59;5063365;28;20057;-72
2021/12/22 11:04:05;;;;;;;3.85;1.85;;;;;;;3.03;43.35;97887.34;5064430;28;20056;-73
2021/12/22 11:06:36;;;;;;;3.65;1.92;;;;;;;2.79;44.78;97887.50;5032619;28;20049;-68
2021/12/22 11:09:13;;;;;;;4.97;1.30;;;;;;;2.56;43.53;97909.50;5042472;28;20056;-72
2021/12/22 11:11:46;;;;;;;10.10;4.30;;;;;;;2.72;44.29;97881.59;5044258;28;20044;-72
2021/12/22 11:14:17;;;;;;;10.18;3.60;;;;;;;3.34;43.56;97888.38;5044545;28;20056;-68
2021/12/22 11:17:10;;;;;;;4.90;2.08;;;;;;;3.48;41.79;97872.78;5043410;28;20064;-68
2021/12/22 11:19:57;;;;;;;4.35;1.38;;;;;;;2.90;43.15;97888.13;5043408;28;20057;-68
2021/12/22 11:22:50;;;;;;;7.03;3.92;;;;;;;2.77;44.07;97853.31;5041827;28;20053;-70
2021/12/22 11:25:18;;;;;;;10.50;4.43;;;;;;;3.09;44.27;97870.53;5006820;28;20048;-71
2021/12/22 11:27:45;;;;;;;41.25;18.23;;;;;;;3.08;44.71;97846.22;5043560;28;20167;-72
2021/12/22 11:30:12;;;;;;;4.95;1.90;;;;;;;2.46;45.04;97876.84;5042791;28;20512;-73
2021/12/22 11:32:39;;;;;;;3.45;1.48;;;;;;;2.02;45.20;97915.50;5043695;28;20057;-72
2021/12/22 11:35:09;;;;;;;6.82;2.42;;;;;;;2.48;44.94;97863.69;5042849;28;20990;-68
2021/12/22 11:37:36;;;;;;;5.72;2.08;;;;;;;2.48;44.60;97869.16;5043404;28;20496;-70
2021/12/22 11:40:08;;;;;;;5.90;2.53;;;;;;;0.61;46.96;97739.06;5042592;28;20052;-68
2021/12/22 11:42:39;;;;;;;5.10;1.52;;;;;;;1.44;46.87;97865.72;5043335;28;20838;-72
2021/12/22 11:45:13;;;;;;;2.72;1.40;;;;;;;0.81;46.69;97801.53;5042992;28;20052;-71
2021/12/22 11:47:43;;;;;;;10.30;2.67;;;;;;;1.43;47.10;97855.91;5043505;28;20484;-71
2021/12/22 11:50:15;;;;;;;4.97;1.58;;;;;;;1.44;47.16;97859.44;5042657;28;20071;-65
2021/12/22 11:52:58;;;;;;;4.28;1.70;;;;;;;1.35;46.50;97785.59;5043166;28;20092;-72
2021/12/22 11:55:48;;;;;;;1.25;0.50;;;;;;;1.43;45.66;97861.38;5042964;28;20137;-64
2021/12/22 11:58:25;;;;;;;3.88;0.80;;;;;;;1.08;47.21;97850.88;5061018;28;20068;-64
2021/12/22 12:00:58;;;;;;;4.95;1.58;;;;;;;1.44;47.03;97854.78;5044913;28;20064;-65
2021/12/22 12:03:34;;;;;;;5.18;1.77;;;;;;;1.64;46.07;97848.28;5063216;28;20052;-63
2021/12/22 12:06:12;;;;;;;3.67;1.45;;;;;;;1.09;46.05;97841.56;5044930;28;20052;-62
2021/12/22 12:08:45;;;;;;;3.33;1.63;;;;;;;1.17;46.12;97838.22;5045431;28;20060;-62
2021/12/22 12:11:16;;;;;;;5.53;1.67;;;;;;;1.83;46.61;97834.63;5060505;28;20084;-63
2021/12/22 12:13:55;;;;;;;32.03;15.82;;;;;;;2.21;45.18;97793.34;5051309;28;20432;-61